Map

Track Data

SID SEASON NUMBER BASIN SUBBASIN NAME ISO_TIME NATURE LAT LON WMO_WIND WMO_PRES WMO_AGENCY TRACK_TYPE DIST2LAND LANDFALL IFLAG USA_AGENCY USA_ATCF_ID USA_LAT USA_LON USA_RECORD USA_STATUS USA_WIND USA_PRES USA_SSHS USA_R34_NE USA_R34_SE USA_R34_SW USA_R34_NW USA_R50_NE USA_R50_SE USA_R50_SW USA_R50_NW USA_R64_NE USA_R64_SE USA_R64_SW USA_R64_NW USA_POCI USA_ROCI USA_RMW USA_EYE TOKYO_LAT TOKYO_LON TOKYO_GRADE TOKYO_WIND TOKYO_PRES TOKYO_R50_DIR TOKYO_R50_LONG TOKYO_R50_SHORT TOKYO_R30_DIR TOKYO_R30_LONG TOKYO_R30_SHORT TOKYO_LAND CMA_LAT CMA_LON CMA_CAT CMA_WIND CMA_PRES HKO_LAT HKO_LON HKO_CAT HKO_WIND HKO_PRES NEWDELHI_LAT NEWDELHI_LON NEWDELHI_GRADE NEWDELHI_WIND NEWDELHI_PRES NEWDELHI_CI NEWDELHI_DP NEWDELHI_POCI REUNION_LAT REUNION_LON REUNION_TYPE REUNION_WIND REUNION_PRES REUNION_TNUM REUNION_CI REUNION_RMW REUNION_R34_NE REUNION_R34_SE REUNION_R34_SW REUNION_R34_NW REUNION_R50_NE REUNION_R50_SE REUNION_R50_SW REUNION_R50_NW REUNION_R64_NE REUNION_R64_SE REUNION_R64_SW REUNION_R64_NW BOM_LAT BOM_LON BOM_TYPE BOM_WIND BOM_PRES BOM_TNUM BOM_CI BOM_RMW BOM_R34_NE BOM_R34_SE BOM_R34_SW BOM_R34_NW BOM_R50_NE BOM_R50_SE BOM_R50_SW BOM_R50_NW BOM_R64_NE BOM_R64_SE BOM_R64_SW BOM_R64_NW BOM_ROCI BOM_POCI BOM_EYE BOM_POS_METHOD BOM_PRES_METHOD NADI_LAT NADI_LON NADI_CAT NADI_WIND NADI_PRES WELLINGTON_LAT WELLINGTON_LON WELLINGTON_WIND WELLINGTON_PRES DS824_LAT DS824_LON DS824_STAGE DS824_WIND DS824_PRES TD9636_LAT TD9636_LON TD9636_STAGE TD9636_WIND TD9636_PRES TD9635_LAT TD9635_LON TD9635_WIND TD9635_PRES TD9635_ROCI NEUMANN_LAT NEUMANN_LON NEUMANN_CLASS NEUMANN_WIND NEUMANN_PRES MLC_LAT MLC_LON MLC_CLASS MLC_WIND MLC_PRES USA_GUST BOM_GUST BOM_GUST_PER REUNION_GUST REUNION_GUST_PER USA_SEAHGT USA_SEARAD_NE USA_SEARAD_SE USA_SEARAD_SW USA_SEARAD_NW STORM_SPEED STORM_DIR
1969206N09333 1969 44 NA NA ANNA 1969-07-25 06:00:00 TS 9.00000 -27.0000 30 hurdat_atl main 1178 1178 O_____________ hurdat_atl AL061969 9.00000 -27.0000 TD 30 -1 10 275
1969206N09333 1969 44 NA NA ANNA 1969-07-25 09:00:00 TS 9.04014 -27.5000 main 1230 1230 P_____________ AL061969 9.04014 -27.5000 TD 30 -1 10 276
1969206N09333 1969 44 NA NA ANNA 1969-07-25 12:00:00 TS 9.10000 -28.0000 30 hurdat_atl main 1278 1278 O_____________ hurdat_atl AL061969 9.10000 -28.0000 TD 30 -1 10 279
1969206N09333 1969 44 NA NA ANNA 1969-07-25 15:00:00 TS 9.19243 -28.5000 main 1327 1327 P_____________ AL061969 9.19243 -28.5000 TD 30 -1 10 281
1969206N09333 1969 44 NA NA ANNA 1969-07-25 18:00:00 TS 9.30000 -29.0000 30 hurdat_atl main 1377 1377 O_____________ hurdat_atl AL061969 9.30000 -29.0000 TD 30 -1 10 282
1969206N09333 1969 44 NA NA ANNA 1969-07-25 21:00:00 TS 9.39993 -29.5000 main 1427 1427 P_____________ AL061969 9.39993 -29.5000 TD 30 -1 10 281
1969206N09333 1969 44 NA NA ANNA 1969-07-26 00:00:00 TS 9.50000 -30.0000 30 hurdat_atl main 1477 1477 O_____________ hurdat_atl AL061969 9.50000 -30.0000 TD 30 -1 10 281
1969206N09333 1969 44 NA NA ANNA 1969-07-26 03:00:00 TS 9.59243 -30.5001 main 1524 1524 P_____________ AL061969 9.59243 -30.5001 TD 30 -1 10 281
1969206N09333 1969 44 NA NA ANNA 1969-07-26 06:00:00 TS 9.70000 -31.0000 30 hurdat_atl main 1570 1570 O_____________ hurdat_atl AL061969 9.70000 -31.0000 TD 30 -1 10 284
1969206N09333 1969 44 NA NA ANNA 1969-07-26 09:00:00 TS 9.83493 -31.5000 main 1617 1617 P_____________ AL061969 9.83493 -31.5000 TD 30 -1 10 287
1969206N09333 1969 44 NA NA ANNA 1969-07-26 12:00:00 TS 10.0000 -32.0000 30 hurdat_atl main 1660 1660 O_____________ hurdat_atl AL061969 10.0000 -32.0000 TD 30 -1 11 290
1969206N09333 1969 44 NA NA ANNA 1969-07-26 15:00:00 TS 10.1924 -32.5000 main 1675 1665 P_____________ AL061969 10.1924 -32.5000 TD 30 -1 11 292
1969206N09333 1969 44 NA NA ANNA 1969-07-26 18:00:00 TS 10.4000 -33.0000 30 hurdat_atl main 1669 1660 O_____________ hurdat_atl AL061969 10.4000 -33.0000 TD 30 -1 11 293
1969206N09333 1969 44 NA NA ANNA 1969-07-26 21:00:00 TS 10.5999 -33.5001 main 1665 1658 P_____________ AL061969 10.5999 -33.5001 TD 30 -1 11 292
1969206N09333 1969 44 NA NA ANNA 1969-07-27 00:00:00 TS 10.8000 -34.0000 30 hurdat_atl main 1664 1659 O_____________ hurdat_atl AL061969 10.8000 -34.0000 TD 30 -1 11 293
1969206N09333 1969 44 NA NA ANNA 1969-07-27 03:00:00 TS 11.0149 -34.5000 main 1664 1660 P_____________ AL061969 11.0149 -34.5000 TD 32 -1 11 292
1969206N09333 1969 44 NA NA ANNA 1969-07-27 06:00:00 TS 11.2000 -35.0000 35 hurdat_atl main 1666 1659 O_____________ hurdat_atl AL061969 11.2000 -35.0000 TS 35 0 10 287
1969206N09333 1969 44 NA NA ANNA 1969-07-27 09:00:00 TS 11.3074 -35.5001 main 1660 1654 P_____________ AL061969 11.3074 -35.5001 TS 35 0 10 282
1969206N09333 1969 44 NA NA ANNA 1969-07-27 12:00:00 TS 11.4000 -36.0000 35 hurdat_atl main 1656 1651 O_____________ hurdat_atl AL061969 11.4000 -36.0000 TS 35 0 10 283
1969206N09333 1969 44 NA NA ANNA 1969-07-27 15:00:00 TS 11.5424 -36.5000 main 1654 1654 P_____________ AL061969 11.5424 -36.5000 TS 37 0 10 287
1969206N09333 1969 44 NA NA ANNA 1969-07-27 18:00:00 TS 11.7000 -37.0000 40 1002 hurdat_atl main 1664 1662 O_____________ hurdat_atl AL061969 11.7000 -37.0000 TS 40 1002 0 10 287
1969206N09333 1969 44 NA NA ANNA 1969-07-27 21:00:00 TS 11.8499 -37.5000 main 1666 1666 P_____________ AL061969 11.8499 -37.5001 TS 40 0 10 287
1969206N09333 1969 44 NA NA ANNA 1969-07-28 00:00:00 TS 12.0000 -38.0000 40 hurdat_atl main 1681 1657 O_____________ hurdat_atl AL061969 12.0000 -38.0000 TS 40 0 10 287
1969206N09333 1969 44 NA NA ANNA 1969-07-28 03:00:00 TS 12.1424 -38.5001 main 1657 1623 P_____________ AL061969 12.1424 -38.5001 TS 42 0 10 287
1969206N09333 1969 44 NA NA ANNA 1969-07-28 06:00:00 TS 12.3000 -39.0000 45 hurdat_atl main 1623 1590 O_____________ hurdat_atl AL061969 12.3000 -39.0000 TS 45 0 10 290
1969206N09333 1969 44 NA NA ANNA 1969-07-28 09:00:00 TS 12.4924 -39.5000 main 1590 1558 P_____________ AL061969 12.4924 -39.5000 TS 47 0 11 292
1969206N09333 1969 44 NA NA ANNA 1969-07-28 12:00:00 TS 12.7000 -40.0000 50 hurdat_atl main 1558 1528 O_____________ hurdat_atl AL061969 12.7000 -40.0000 TS 50 0 11 293
1969206N09333 1969 44 NA NA ANNA 1969-07-28 15:00:00 TS 12.8999 -40.4926 main 1528 1500 P_____________ AL061969 12.8999 -40.4926 TS 50 0 11 292
1969206N09333 1969 44 NA NA ANNA 1969-07-28 18:00:00 TS 13.1000 -41.0000 50 hurdat_atl main 1500 1474 O_____________ hurdat_atl AL061969 13.1000 -41.0000 TS 50 0 11 292
1969206N09333 1969 44 NA NA ANNA 1969-07-28 21:00:00 TS 13.2999 -41.5351 main 1474 1443 P_____________ AL061969 13.2999 -41.5351 TS 50 0 11 290
1969206N09333 1969 44 NA NA ANNA 1969-07-29 00:00:00 TS 13.5000 -42.1000 50 hurdat_atl main 1443 1414 O_____________ hurdat_atl AL061969 13.5000 -42.1000 TS 50 0 12 290
1969206N09333 1969 44 NA NA ANNA 1969-07-29 03:00:00 TS 13.7074 -42.6850 main 1414 1388 P_____________ AL061969 13.7074 -42.6850 TS 50 0 12 289
1969206N09333 1969 44 NA NA ANNA 1969-07-29 06:00:00 TS 13.9000 -43.3000 50 hurdat_atl main 1388 1356 O_____________ hurdat_atl AL061969 13.9000 -43.3000 TS 50 0 13 286
1969206N09333 1969 44 NA NA ANNA 1969-07-29 09:00:00 TS 14.0573 -43.9352 main 1365 1330 P_____________ AL061969 14.0573 -43.9352 TS 50 0 13 283
1969206N09333 1969 44 NA NA ANNA 1969-07-29 12:00:00 TS 14.2000 -44.6000 50 hurdat_atl main 1330 1302 O_____________ hurdat_atl AL061969 14.2000 -44.6000 TS 50 0 13 283
1969206N09333 1969 44 NA NA ANNA 1969-07-29 15:00:00 TS 14.3497 -45.2776 main 1295 1267 P_____________ AL061969 14.3497 -45.2776 TS 50 0 14 282
1969206N09333 1969 44 NA NA ANNA 1969-07-29 18:00:00 TS 14.5000 -46.0000 50 1003 hurdat_atl main 1267 1235 O_____________ hurdat_atl AL061969 14.5000 -46.0000 TS 50 1003 0 15 282
1969206N09333 1969 44 NA NA ANNA 1969-07-29 21:00:00 TS 14.6569 -46.7476 main 1244 1211 P_____________ AL061969 14.6569 -46.7476 TS 50 0 16 281
1969206N09333 1969 44 NA NA ANNA 1969-07-30 00:00:00 TS 14.8000 -47.6000 50 hurdat_atl main 1206 1173 O_____________ hurdat_atl AL061969 14.8000 -47.6000 TS 50 0 18 278
1969206N09333 1969 44 NA NA ANNA 1969-07-30 03:00:00 TS 14.8999 -48.6053 main 1169 1136 P_____________ AL061969 14.8999 -48.6053 TS 50 0 20 276
1969206N09333 1969 44 NA NA ANNA 1969-07-30 06:00:00 TS 15.0000 -49.7000 50 hurdat_atl main 1131 1099 O_____________ hurdat_atl AL061969 15.0000 -49.7000 TS 50 0 21 276
1969206N09333 1969 44 NA NA ANNA 1969-07-30 09:00:00 TS 15.1347 -50.8001 main 1095 1082 P_____________ AL061969 15.1347 -50.8001 TS 47 0 21 278
1969206N09333 1969 44 NA NA ANNA 1969-07-30 12:00:00 TS 15.3000 -51.9000 45 1005 hurdat_atl main 1082 1028 O_____________ hurdat_atl AL061969 15.3000 -51.9000 TS 45 1005 0 21 280
1969206N09333 1969 44 NA NA ANNA 1969-07-30 15:00:00 TS 15.4918 -52.9501 main 1019 951 P_____________ AL061969 15.4918 -52.9501 TS 45 1004 0 21 281
1969206N09333 1969 44 NA NA ANNA 1969-07-30 18:00:00 TS 15.7000 -54.0000 45 1004 hurdat_atl main 942 872 O_____________ hurdat_atl AL061969 15.7000 -54.0000 TS 45 1004 0 21 281
1969206N09333 1969 44 NA NA ANNA 1969-07-30 21:00:00 TS 15.8763 -55.0484 main 872 804 P_____________ AL061969 15.8763 -55.0484 TS 45 1004 0 22 281
1969206N09333 1969 44 NA NA ANNA 1969-07-31 00:00:00 TS 16.1000 -56.2000 45 1004 hurdat_atl main 796 741 O_____________ hurdat_atl AL061969 16.1000 -56.2000 TS 45 1004 0 25 282
1969206N09333 1969 44 NA NA ANNA 1969-07-31 03:00:00 TS 16.4046 -57.5407 main 741 712 P_____________ AL061969 16.4046 -57.5407 TS 42 0 28 285
1969206N09333 1969 44 NA NA ANNA 1969-07-31 06:00:00 TS 16.8000 -59.0000 40 hurdat_atl main 716 562 O_____________ hurdat_atl AL061969 16.8000 -59.0000 TS 40 0 30 287
1969206N09333 1969 44 NA NA ANNA 1969-07-31 09:00:00 TS 17.2617 -60.4857 main 549 393 P_____________ AL061969 17.2617 -60.4857 TS 37 0 30 289
1969206N09333 1969 44 NA CS ANNA 1969-07-31 12:00:00 NR 17.8000 -62.0000 35 hurdat_atl main 383 221 O_____________ hurdat_atl AL061969 17.8000 -62.0000 DB 35 -3 31 290
1969206N09333 1969 44 NA CS ANNA 1969-07-31 15:00:00 NR 18.3254 -63.5760 main 211 92 P_____________ AL061969 18.3254 -63.5760 DB 35 -3 31 293
1969206N09333 1969 44 NA NA ANNA 1969-07-31 18:00:00 NR 19.0000 -65.0000 35 hurdat_atl main 92 85 O_____________ hurdat_atl AL061969 19.0000 -65.0000 DB 35 -3 28 304
1969206N09333 1969 44 NA NA ANNA 1969-07-31 21:00:00 NR 19.9006 -66.0769 main 167 167 P_____________ AL061969 19.9006 -66.0769 DB 35 -3 28 317
1969206N09333 1969 44 NA NA ANNA 1969-08-01 00:00:00 NR 21.0000 -67.0000 35 hurdat_atl main 290 290 O_____________ hurdat_atl AL061969 21.0000 -67.0000 DB 35 -3 30 322
1969206N09333 1969 44 NA NA ANNA 1969-08-01 03:00:00 NR 22.2502 -68.0513 main 357 357 P_____________ AL061969 22.2502 -68.0513 DB 35 -3 31 323
1969206N09333 1969 44 NA NA ANNA 1969-08-01 06:00:00 NR 23.5000 -69.0000 35 hurdat_atl main 445 445 O_____________ hurdat_atl AL061969 23.5000 -69.0000 DB 35 -3 28 327
1969206N09333 1969 44 NA NA ANNA 1969-08-01 09:00:00 NR 24.5739 -69.7121 main 508 508 P_____________ AL061969 24.5739 -69.7121 DB 35 -3 23 329
1969206N09333 1969 44 NA NA ANNA 1969-08-01 12:00:00 TS 25.5000 -70.3000 35 hurdat_atl main 553 553 O_____________ hurdat_atl AL061969 25.5000 -70.3000 TS 35 0 20 328
1969206N09333 1969 44 NA NA ANNA 1969-08-01 15:00:00 TS 26.2868 -70.8869 main 608 608 P_____________ AL061969 26.2868 -70.8869 TS 35 0 19 324
1969206N09333 1969 44 NA NA ANNA 1969-08-01 18:00:00 TS 27.0000 -71.5000 35 1006 hurdat_atl main 665 645 O_____________ hurdat_atl AL061969 27.0000 -71.5000 TS 35 1006 0 19 320
1969206N09333 1969 44 NA NA ANNA 1969-08-01 21:00:00 TS 27.7579 -72.2573 main 642 624 P_____________ AL061969 27.7579 -72.2573 TS 32 -1 20 318
1969206N09333 1969 44 NA NA ANNA 1969-08-02 00:00:00 TS 28.5000 -73.0000 30 hurdat_atl main 624 622 O_____________ hurdat_atl AL061969 28.5000 -73.0000 TD 30 -1 19 321
1969206N09333 1969 44 NA NA ANNA 1969-08-02 03:00:00 TS 29.2147 -73.6181 main 631 577 P_____________ AL061969 29.2147 -73.6181 TD 30 -1 17 326
1969206N09333 1969 44 NA NA ANNA 1969-08-02 06:00:00 TS 29.9000 -74.1000 30 hurdat_atl main 577 501 O_____________ hurdat_atl AL061969 29.9000 -74.1000 TD 30 -1 15 330
1969206N09333 1969 44 NA NA ANNA 1969-08-02 09:00:00 TS 30.5498 -74.4975 main 501 424 P_____________ AL061969 30.5498 -74.4975 TD 30 -1 14 338
1969206N09333 1969 44 NA NA ANNA 1969-08-02 12:00:00 TS 31.2000 -74.7000 30 1013 hurdat_atl main 424 354 O_____________ hurdat_atl AL061969 31.2000 -74.7000 TD 30 1013 -1 14 353
1969206N09333 1969 44 NA NA ANNA 1969-08-02 15:00:00 TS 31.8923 -74.6831 main 354 298 P_____________ AL061969 31.8923 -74.6831 TD 32 1010 -1 14 7
1969206N09333 1969 44 NA NA ANNA 1969-08-02 18:00:00 TS 32.6000 -74.5000 35 1008 hurdat_atl main 298 255 O_____________ hurdat_atl AL061969 32.6000 -74.5000 TS 35 1008 0 14 12
1969206N09333 1969 44 NA NA ANNA 1969-08-02 21:00:00 TS 33.2169 -74.3439 main 262 230 P_____________ AL061969 33.2169 -74.3439 TS 37 0 15 17
1969206N09333 1969 44 NA NA ANNA 1969-08-03 00:00:00 TS 34.0000 -74.0000 40 hurdat_atl main 233 193 O_____________ hurdat_atl AL061969 34.0000 -74.0000 TS 40 0 21 21
1969206N09333 1969 44 NA NA ANNA 1969-08-03 03:00:00 TS 35.1655 -73.4339 main 201 197 P_____________ AL061969 35.1655 -73.4339 TS 45 0 28 26
1969206N09333 1969 44 NA NA ANNA 1969-08-03 06:00:00 TS 36.5000 -72.5000 50 hurdat_atl main 279 279 O_____________ hurdat_atl AL061969 36.5000 -72.5000 TS 50 0 32 35
1969206N09333 1969 44 NA NA ANNA 1969-08-03 09:00:00 TS 37.7939 -71.1800 main 328 301 P_____________ AL061969 37.7939 -71.1800 TS 52 0 34 43
1969206N09333 1969 44 NA NA ANNA 1969-08-03 12:00:00 TS 39.0000 -69.5000 55 hurdat_atl main 296 255 O_____________ hurdat_atl AL061969 39.0000 -69.5000 TS 55 0 36 50
1969206N09333 1969 44 NA NA ANNA 1969-08-03 15:00:00 TS 40.0924 -67.6131 main 268 268 P_____________ AL061969 40.0924 -67.6131 TS 57 0 35 58
1969206N09333 1969 44 NA NA ANNA 1969-08-03 18:00:00 TS 40.9000 -65.6000 60 1002 hurdat_atl main 289 264 O_____________ hurdat_atl AL061969 40.9000 -65.6000 TS 60 1002 0 32 68
1969206N09333 1969 44 NA NA ANNA 1969-08-03 21:00:00 TS 41.2993 -63.7199 main 277 277 P_____________ AL061969 41.2993 -63.7199 TS 60 1001 0 29 78
1969206N09333 1969 44 NA NA ANNA 1969-08-04 00:00:00 TS 41.5000 -61.8000 60 1001 hurdat_atl main 353 353 O_____________ hurdat_atl AL061969 41.5000 -61.8000 TS 60 1001 0 30 81
1969206N09333 1969 44 NA NA ANNA 1969-08-04 03:00:00 TS 41.7547 -59.7001 main 394 394 P_____________ AL061969 41.7547 -59.7001 TS 55 0 32 81
1969206N09333 1969 44 NA NA ANNA 1969-08-04 06:00:00 TS 42.0000 -57.5000 50 hurdat_atl main 458 458 O_____________ hurdat_atl AL061969 42.0000 -57.5000 TS 50 0 32 81
1969206N09333 1969 44 NA NA ANNA 1969-08-04 09:00:00 TS 42.2392 -55.3735 main 509 455 P_____________ AL061969 42.2392 -55.3735 TS 47 0 34 81
1969206N09333 1969 44 NA NA ANNA 1969-08-04 12:00:00 TS 42.5000 -53.0000 45 hurdat_atl main 455 449 O_____________ hurdat_atl AL061969 42.5000 -53.0000 TS 45 0 39 82
1969206N09333 1969 44 NA NA ANNA 1969-08-04 15:00:00 TS 42.7723 -50.1517 main 483 483 P_____________ AL061969 42.7723 -50.1517 TS 45 0 44 84
1969206N09333 1969 44 NA NA ANNA 1969-08-04 18:00:00 TS 43.0000 -47.0000 45 hurdat_atl main 630 O_____________ hurdat_atl AL061969 43.0000 -47.0000 TS 45 0 46 84

About IBTrACS Database

This database is a web-friendly format of International Best Track Archive for Climate Stewardship (IBTrACS), a global best track data archive curated by NOAA dating back to 1842.

Updated: 2022-09-30